sensor_id;sensor_type;location;lat;lon;timestamp;temperature;humidity
39345;DHT22;25061;51.954;6.996;2023-04-25T04:31:13;5.50;99.90
39345;DHT22;25061;51.954;6.996;2023-04-25T04:33:42;5.50;99.90
39345;DHT22;25061;51.954;6.996;2023-04-25T04:36:07;5.50;99.90
39345;DHT22;25061;51.954;6.996;2023-04-25T04:38:33;5.50;99.90
39345;DHT22;25061;51.954;6.996;2023-04-25T04:40:59;5.50;99.90
39345;DHT22;25061;51.954;6.996;2023-04-25T04:43:24;5.40;99.90
39345;DHT22;25061;51.954;6.996;2023-04-25T04:45:53;5.40;99.90
39345;DHT22;25061;51.954;6.996;2023-04-25T04:48:21;5.40;99.90
39345;DHT22;25061;51.954;6.996;2023-04-25T04:50:47;5.40;99.90
39345;DHT22;25061;51.954;6.996;2023-04-25T04:53:13;5.40;99.90
39345;DHT22;25061;51.954;6.996;2023-04-25T04:55:39;5.40;99.90
39345;DHT22;25061;51.954;6.996;2023-04-25T04:58:06;5.40;99.90
39345;DHT22;25061;51.954;6.996;2023-04-25T05:00:32;5.40;99.90
39345;DHT22;25061;51.954;6.996;2023-04-25T05:02:58;5.40;99.90
39345;DHT22;25061;51.954;6.996;2023-04-25T05:05:24;5.40;99.90
39345;DHT22;25061;51.954;6.996;2023-04-25T05:07:50;5.50;99.90
39345;DHT22;25061;51.954;6.996;2023-04-25T05:10:17;5.50;99.90
39345;DHT22;25061;51.954;6.996;2023-04-25T05:12:43;5.50;99.90
39345;DHT22;25061;51.954;6.996;2023-04-25T05:15:08;5.50;99.90
39345;DHT22;25061;51.954;6.996;2023-04-25T05:17:35;5.50;99.90
39345;DHT22;25061;51.954;6.996;2023-04-25T05:20:00;5.50;99.90
39345;DHT22;25061;51.954;6.996;2023-04-25T05:22:27;5.50;99.90
39345;DHT22;25061;51.954;6.996;2023-04-25T05:24:53;5.60;99.90
39345;DHT22;25061;51.954;6.996;2023-04-25T05:27:19;5.60;99.90
39345;DHT22;25061;51.954;6.996;2023-04-25T05:29:45;5.60;99.90
39345;DHT22;25061;51.954;6.996;2023-04-25T05:32:11;5.60;99.90
39345;DHT22;25061;51.954;6.996;2023-04-25T05:34:36;5.60;99.90
39345;DHT22;25061;51.954;6.996;2023-04-25T05:37:02;5.70;99.90
39345;DHT22;25061;51.954;6.996;2023-04-25T05:39:28;5.70;99.90
39345;DHT22;25061;51.954;6.996;2023-04-25T05:41:54;5.70;99.90
39345;DHT22;25061;51.954;6.996;2023-04-25T05:44:19;5.70;99.90
39345;DHT22;25061;51.954;6.996;2023-04-25T05:46:45;5.80;99.90
39345;DHT22;25061;51.954;6.996;2023-04-25T05:49:11;5.80;99.90
39345;DHT22;25061;51.954;6.996;2023-04-25T05:51:36;5.70;99.90
39345;DHT22;25061;51.954;6.996;2023-04-25T05:54:02;5.80;99.90
39345;DHT22;25061;51.954;6.996;2023-04-25T05:56:28;5.80;99.90
39345;DHT22;25061;51.954;6.996;2023-04-25T05:58:54;5.90;99.90
39345;DHT22;25061;51.954;6.996;2023-04-25T06:01:21;5.90;99.90
39345;DHT22;25061;51.954;6.996;2023-04-25T06:03:47;5.90;99.90
39345;DHT22;25061;51.954;6.996;2023-04-25T06:06:12;5.90;99.90
39345;DHT22;25061;51.954;6.996;2023-04-25T06:08:38;5.90;99.90
39345;DHT22;25061;51.954;6.996;2023-04-25T06:11:04;5.90;99.90
39345;DHT22;25061;51.954;6.996;2023-04-25T06:13:30;5.90;99.90
39345;DHT22;25061;51.954;6.996;2023-04-25T06:15:55;6.00;99.90
39345;DHT22;25061;51.954;6.996;2023-04-25T06:18:21;6.00;99.90
39345;DHT22;25061;51.954;6.996;2023-04-25T06:20:46;6.00;99.90
39345;DHT22;25061;51.954;6.996;2023-04-25T06:23:12;6.10;99.90
39345;DHT22;25061;51.954;6.996;2023-04-25T06:25:38;6.00;99.90
39345;DHT22;25061;51.954;6.996;2023-04-25T06:28:03;6.00;99.90
39345;DHT22;25061;51.954;6.996;2023-04-25T06:30:29;6.10;99.90
39345;DHT22;25061;51.954;6.996;2023-04-25T06:32:56;6.10;99.90
39345;DHT22;25061;51.954;6.996;2023-04-25T06:35:22;6.10;99.90
39345;DHT22;25061;51.954;6.996;2023-04-25T06:37:48;6.20;99.90
39345;DHT22;25061;51.954;6.996;2023-04-25T06:40:13;6.20;99.90
39345;DHT22;25061;51.954;6.996;2023-04-25T06:42:40;6.20;99.90
39345;DHT22;25061;51.954;6.996;2023-04-25T06:45:06;6.20;99.90
39345;DHT22;25061;51.954;6.996;2023-04-25T06:47:31;6.30;99.90
39345;DHT22;25061;51.954;6.996;2023-04-25T06:49:57;6.30;99.90
39345;DHT22;25061;51.954;6.996;2023-04-25T06:52:22;6.30;99.90
39345;DHT22;25061;51.954;6.996;2023-04-25T06:54:48;6.30;99.90
39345;DHT22;25061;51.954;6.996;2023-04-25T06:57:14;6.40;99.90
39345;DHT22;25061;51.954;6.996;2023-04-25T06:59:40;6.40;99.90
39345;DHT22;25061;51.954;6.996;2023-04-25T07:02:05;6.50;99.90
39345;DHT22;25061;51.954;6.996;2023-04-25T07:04:31;6.70;99.90
39345;DHT22;25061;51.954;6.996;2023-04-25T07:06:57;6.70;99.90
39345;DHT22;25061;51.954;6.996;2023-04-25T07:09:22;6.70;99.90
39345;DHT22;25061;51.954;6.996;2023-04-25T07:11:48;6.70;99.90
39345;DHT22;25061;51.954;6.996;2023-04-25T07:14:14;6.70;99.90
39345;DHT22;25061;51.954;6.996;2023-04-25T07:16:40;6.70;99.90
39345;DHT22;25061;51.954;6.996;2023-04-25T07:19:06;6.80;99.90
39345;DHT22;25061;51.954;6.996;2023-04-25T07:21:31;6.80;99.90
39345;DHT22;25061;51.954;6.996;2023-04-25T07:23:57;7.00;99.90
39345;DHT22;25061;51.954;6.996;2023-04-25T07:26:24;7.00;99.90
39345;DHT22;25061;51.954;6.996;2023-04-25T07:28:50;7.00;99.90
39345;DHT22;25061;51.954;6.996;2023-04-25T07:31:17;7.00;99.90
39345;DHT22;25061;51.954;6.996;2023-04-25T07:33:46;7.10;99.90
39345;DHT22;25061;51.954;6.996;2023-04-25T07:36:12;7.00;99.90
39345;DHT22;25061;51.954;6.996;2023-04-25T07:38:38;7.00;99.90
39345;DHT22;25061;51.954;6.996;2023-04-25T07:41:04;7.00;99.90
39345;DHT22;25061;51.954;6.996;2023-04-25T07:43:30;7.10;99.90
39345;DHT22;25061;51.954;6.996;2023-04-25T07:45:56;7.10;99.90
39345;DHT22;25061;51.954;6.996;2023-04-25T07:48:21;7.10;99.90
39345;DHT22;25061;51.954;6.996;2023-04-25T07:50:47;7.10;99.90
39345;DHT22;25061;51.954;6.996;2023-04-25T07:53:14;7.20;99.90
39345;DHT22;25061;51.954;6.996;2023-04-25T07:55:40;7.20;99.90
39345;DHT22;25061;51.954;6.996;2023-04-25T07:58:06;7.30;99.90
39345;DHT22;25061;51.954;6.996;2023-04-25T08:00:32;7.30;99.90
39345;DHT22;25061;51.954;6.996;2023-04-25T08:02:58;7.30;99.90
39345;DHT22;25061;51.954;6.996;2023-04-25T08:05:23;7.50;99.90
39345;DHT22;25061;51.954;6.996;2023-04-25T08:07:49;7.60;99.90
39345;DHT22;25061;51.954;6.996;2023-04-25T08:10:15;7.70;99.90
39345;DHT22;25061;51.954;6.996;2023-04-25T08:12:41;7.70;99.90
39345;DHT22;25061;51.954;6.996;2023-04-25T08:15:07;7.70;99.90
39345;DHT22;25061;51.954;6.996;2023-04-25T08:17:32;7.70;99.90
39345;DHT22;25061;51.954;6.996;2023-04-25T08:19:59;7.80;99.90
39345;DHT22;25061;51.954;6.996;2023-04-25T08:22:25;7.80;99.90
39345;DHT22;25061;51.954;6.996;2023-04-25T08:24:50;7.80;99.90
39345;DHT22;25061;51.954;6.996;2023-04-25T08:27:17;7.80;99.90
39345;DHT22;25061;51.954;6.996;2023-04-25T08:29:43;7.90;99.90
39345;DHT22;25061;51.954;6.996;2023-04-25T08:32:10;7.90;99.90
39345;DHT22;25061;51.954;6.996;2023-04-25T08:34:35;7.90;99.90
39345;DHT22;25061;51.954;6.996;2023-04-25T08:37:03;8.00;99.90
39345;DHT22;25061;51.954;6.996;2023-04-25T08:39:29;8.10;99.90
39345;DHT22;25061;51.954;6.996;2023-04-25T08:41:56;8.30;99.90
39345;DHT22;25061;51.954;6.996;2023-04-25T08:44:22;8.40;99.90
39345;DHT22;25061;51.954;6.996;2023-04-25T08:46:49;8.40;99.90
39345;DHT22;25061;51.954;6.996;2023-04-25T08:49:16;8.30;99.90
39345;DHT22;25061;51.954;6.996;2023-04-25T08:51:46;8.30;99.90
39345;DHT22;25061;51.954;6.996;2023-04-25T08:54:13;8.30;99.90
39345;DHT22;25061;51.954;6.996;2023-04-25T08:56:47;8.10;99.90
39345;DHT22;25061;51.954;6.996;2023-04-25T08:59:13;8.20;99.90
39345;DHT22;25061;51.954;6.996;2023-04-25T09:01:39;8.20;99.90
39345;DHT22;25061;51.954;6.996;2023-04-25T09:04:05;8.40;99.90
39345;DHT22;25061;51.954;6.996;2023-04-25T09:06:31;8.40;99.90
39345;DHT22;25061;51.954;6.996;2023-04-25T09:09:05;8.40;99.90
39345;DHT22;25061;51.954;6.996;2023-04-25T09:11:33;8.30;99.90
39345;DHT22;25061;51.954;6.996;2023-04-25T09:14:16;8.40;99.90
39345;DHT22;25061;51.954;6.996;2023-04-25T09:19:32;8.30;99.90
39345;DHT22;25061;51.954;6.996;2023-04-25T09:22:02;8.30;99.90
39345;DHT22;25061;51.954;6.996;2023-04-25T09:24:42;8.20;99.90
39345;DHT22;25061;51.954;6.996;2023-04-25T09:27:11;8.10;99.90
39345;DHT22;25061;51.954;6.996;2023-04-25T09:29:40;7.90;99.90
39345;DHT22;25061;51.954;6.996;2023-04-25T09:32:25;7.90;99.90
39345;DHT22;25061;51.954;6.996;2023-04-25T09:34:52;8.00;99.90
39345;DHT22;25061;51.954;6.996;2023-04-25T09:37:20;8.10;99.90
39345;DHT22;25061;51.954;6.996;2023-04-25T09:39:48;8.30;99.90
39345;DHT22;25061;51.954;6.996;2023-04-25T09:42:14;8.30;99.90
39345;DHT22;25061;51.954;6.996;2023-04-25T09:44:46;8.40;99.90
39345;DHT22;25061;51.954;6.996;2023-04-25T09:47:14;8.40;99.90
39345;DHT22;25061;51.954;6.996;2023-04-25T09:49:42;8.50;99.90
39345;DHT22;25061;51.954;6.996;2023-04-25T09:52:08;8.50;99.90
39345;DHT22;25061;51.954;6.996;2023-04-25T09:54:34;8.40;99.90
39345;DHT22;25061;51.954;6.996;2023-04-25T09:57:10;8.40;99.90
39345;DHT22;25061;51.954;6.996;2023-04-25T09:59:50;8.30;99.90
39345;DHT22;25061;51.954;6.996;2023-04-25T10:02:18;8.40;99.90
39345;DHT22;25061;51.954;6.996;2023-04-25T10:04:48;8.30;99.90
39345;DHT22;25061;51.954;6.996;2023-04-25T10:07:14;8.30;99.90
39345;DHT22;25061;51.954;6.996;2023-04-25T10:09:40;8.20;99.90
39345;DHT22;25061;51.954;6.996;2023-04-25T10:12:08;8.20;99.90
39345;DHT22;25061;51.954;6.996;2023-04-25T10:14:34;7.90;99.90
39345;DHT22;25061;51.954;6.996;2023-04-25T10:17:00;8.00;99.90
39345;DHT22;25061;51.954;6.996;2023-04-25T10:19:28;8.20;99.90
39345;DHT22;25061;51.954;6.996;2023-04-25T10:22:31;8.10;99.90
39345;DHT22;25061;51.954;6.996;2023-04-25T10:24:58;8.40;99.90
39345;DHT22;25061;51.954;6.996;2023-04-25T10:27:26;8.40;99.90
39345;DHT22;25061;51.954;6.996;2023-04-25T10:30:08;8.40;99.90
39345;DHT22;25061;51.954;6.996;2023-04-25T10:32:38;8.50;99.90
39345;DHT22;25061;51.954;6.996;2023-04-25T10:35:17;8.40;99.90
39345;DHT22;25061;51.954;6.996;2023-04-25T10:38:05;8.30;99.90
39345;DHT22;25061;51.954;6.996;2023-04-25T10:40:34;8.70;99.90
39345;DHT22;25061;51.954;6.996;2023-04-25T10:45:59;8.60;99.90
39345;DHT22;25061;51.954;6.996;2023-04-25T10:48:29;8.90;99.90
39345;DHT22;25061;51.954;6.996;2023-04-25T10:51:12;9.10;99.90
39345;DHT22;25061;51.954;6.996;2023-04-25T10:53:46;9.20;99.90
39345;DHT22;25061;51.954;6.996;2023-04-25T10:56:22;9.40;99.90
39345;DHT22;25061;51.954;6.996;2023-04-25T10:58:48;9.60;99.90
39345;DHT22;25061;51.954;6.996;2023-04-25T11:01:20;9.50;99.90
39345;DHT22;25061;51.954;6.996;2023-04-25T11:03:46;9.50;99.90
39345;DHT22;25061;51.954;6.996;2023-04-25T11:06:42;9.40;99.90
39345;DHT22;25061;51.954;6.996;2023-04-25T11:09:12;9.20;99.90
39345;DHT22;25061;51.954;6.996;2023-04-25T11:11:39;9.10;99.90
39345;DHT22;25061;51.954;6.996;2023-04-25T11:14:06;8.80;99.90
39345;DHT22;25061;51.954;6.996;2023-04-25T11:16:32;8.80;99.90
39345;DHT22;25061;51.954;6.996;2023-04-25T11:18:58;8.60;99.90
39345;DHT22;25061;51.954;6.996;2023-04-25T11:21:25;8.50;99.90
39345;DHT22;25061;51.954;6.996;2023-04-25T11:23:53;8.50;99.90
39345;DHT22;25061;51.954;6.996;2023-04-25T11:26:20;8.50;99.90
39345;DHT22;25061;51.954;6.996;2023-04-25T11:28:49;8.50;99.90
39345;DHT22;25061;51.954;6.996;2023-04-25T11:31:14;8.70;99.90
39345;DHT22;25061;51.954;6.996;2023-04-25T11:33:40;8.70;99.90
39345;DHT22;25061;51.954;6.996;2023-04-25T11:36:06;8.80;99.90
39345;DHT22;25061;51.954;6.996;2023-04-25T11:38:33;9.00;99.90
39345;DHT22;25061;51.954;6.996;2023-04-25T11:40:59;9.20;99.90
39345;DHT22;25061;51.954;6.996;2023-04-25T11:43:25;9.20;99.90
39345;DHT22;25061;51.954;6.996;2023-04-25T11:45:51;9.30;99.90
39345;DHT22;25061;51.954;6.996;2023-04-25T11:48:18;9.30;99.90
39345;DHT22;25061;51.954;6.996;2023-04-25T11:50:44;9.30;99.90
39345;DHT22;25061;51.954;6.996;2023-04-25T11:53:10;9.30;99.90
39345;DHT22;25061;51.954;6.996;2023-04-25T11:55:36;9.40;99.90
39345;DHT22;25061;51.954;6.996;2023-04-25T11:58:03;9.50;99.90
39345;DHT22;25061;51.954;6.996;2023-04-25T12:00:30;9.50;99.90
39345;DHT22;25061;51.954;6.996;2023-04-25T12:02:57;9.60;99.90
39345;DHT22;25061;51.954;6.996;2023-04-25T12:05:29;9.80;99.90
39345;DHT22;25061;51.954;6.996;2023-04-25T12:07:56;10.00;99.90
39345;DHT22;25061;51.954;6.996;2023-04-25T12:10:21;10.20;99.90
39345;DHT22;25061;51.954;6.996;2023-04-25T12:12:49;10.50;99.90
39345;DHT22;25061;51.954;6.996;2023-04-25T12:15:23;10.20;99.90
39345;DHT22;25061;51.954;6.996;2023-04-25T12:17:50;10.00;99.90
39345;DHT22;25061;51.954;6.996;2023-04-25T12:20:20;9.90;99.90
39345;DHT22;25061;51.954;6.996;2023-04-25T12:22:49;9.70;99.90
39345;DHT22;25061;51.954;6.996;2023-04-25T12:25:41;9.60;99.90
39345;DHT22;25061;51.954;6.996;2023-04-25T12:28:21;9.50;99.90
39345;DHT22;25061;51.954;6.996;2023-04-25T12:35:57;8.60;99.90
39345;DHT22;25061;51.954;6.996;2023-04-25T12:38:25;8.40;99.90
39345;DHT22;25061;51.954;6.996;2023-04-25T12:40:52;8.60;99.90
39345;DHT22;25061;51.954;6.996;2023-04-25T12:43:17;8.70;99.90
39345;DHT22;25061;51.954;6.996;2023-04-25T12:46:03;9.10;99.90
39345;DHT22;25061;51.954;6.996;2023-04-25T12:48:28;9.40;99.90
39345;DHT22;25061;51.954;6.996;2023-04-25T12:50:54;9.50;99.90
39345;DHT22;25061;51.954;6.996;2023-04-25T12:53:22;9.70;99.90
39345;DHT22;25061;51.954;6.996;2023-04-25T12:55:48;9.90;99.90
39345;DHT22;25061;51.954;6.996;2023-04-25T12:58:18;10.30;99.90
39345;DHT22;25061;51.954;6.996;2023-04-25T13:00:45;10.40;99.90
39345;DHT22;25061;51.954;6.996;2023-04-25T13:03:11;10.60;99.90
39345;DHT22;25061;51.954;6.996;2023-04-25T13:05:38;10.90;99.90
39345;DHT22;25061;51.954;6.996;2023-04-25T13:08:04;10.90;99.90
39345;DHT22;25061;51.954;6.996;2023-04-25T13:10:30;10.80;99.90
39345;DHT22;25061;51.954;6.996;2023-04-25T13:12:56;10.70;99.90
39345;DHT22;25061;51.954;6.996;2023-04-25T13:15:22;10.80;99.90
39345;DHT22;25061;51.954;6.996;2023-04-25T13:17:48;10.70;99.90
39345;DHT22;25061;51.954;6.996;2023-04-25T13:20:14;10.70;99.90
39345;DHT22;25061;51.954;6.996;2023-04-25T13:22:41;10.40;99.90
39345;DHT22;25061;51.954;6.996;2023-04-25T13:25:08;10.10;99.90
39345;DHT22;25061;51.954;6.996;2023-04-25T13:27:34;10.00;99.90
39345;DHT22;25061;51.954;6.996;2023-04-25T13:30:01;9.90;99.90
39345;DHT22;25061;51.954;6.996;2023-04-25T13:32:33;10.20;99.90
39345;DHT22;25061;51.954;6.996;2023-04-25T13:34:59;10.50;99.90
39345;DHT22;25061;51.954;6.996;2023-04-25T13:37:24;10.60;99.90
39345;DHT22;25061;51.954;6.996;2023-04-25T13:39:50;10.90;99.90
39345;DHT22;25061;51.954;6.996;2023-04-25T13:42:16;11.00;99.90
39345;DHT22;25061;51.954;6.996;2023-04-25T13:44:42;11.00;99.90
39345;DHT22;25061;51.954;6.996;2023-04-25T13:47:07;10.80;99.90
39345;DHT22;25061;51.954;6.996;2023-04-25T13:49:34;10.90;99.90
39345;DHT22;25061;51.954;6.996;2023-04-25T13:52:00;11.30;99.90
39345;DHT22;25061;51.954;6.996;2023-04-25T13:54:26;11.20;99.90
39345;DHT22;25061;51.954;6.996;2023-04-25T13:56:52;11.00;99.90
39345;DHT22;25061;51.954;6.996;2023-04-25T13:59:20;10.90;99.90
39345;DHT22;25061;51.954;6.996;2023-04-25T14:01:46;11.10;99.90
39345;DHT22;25061;51.954;6.996;2023-04-25T14:04:13;11.10;99.90
39345;DHT22;25061;51.954;6.996;2023-04-25T14:06:38;10.90;99.90
39345;DHT22;25061;51.954;6.996;2023-04-25T14:09:06;10.80;99.90
39345;DHT22;25061;51.954;6.996;2023-04-25T14:11:32;10.60;99.90
39345;DHT22;25061;51.954;6.996;2023-04-25T14:13:58;10.40;99.90
39345;DHT22;25061;51.954;6.996;2023-04-25T14:16:23;10.70;99.90
39345;DHT22;25061;51.954;6.996;2023-04-25T14:18:49;11.00;99.90
39345;DHT22;25061;51.954;6.996;2023-04-25T14:21:15;11.00;99.90
39345;DHT22;25061;51.954;6.996;2023-04-25T14:23:40;10.90;99.90
39345;DHT22;25061;51.954;6.996;2023-04-25T14:26:06;11.20;99.90
39345;DHT22;25061;51.954;6.996;2023-04-25T14:28:31;11.40;99.90
39345;DHT22;25061;51.954;6.996;2023-04-25T14:30:59;11.70;99.90
39345;DHT22;25061;51.954;6.996;2023-04-25T14:33:25;11.80;99.90
39345;DHT22;25061;51.954;6.996;2023-04-25T14:35:51;11.80;99.90
39345;DHT22;25061;51.954;6.996;2023-04-25T14:38:17;11.40;99.90
39345;DHT22;25061;51.954;6.996;2023-04-25T14:40:42;11.50;99.90
39345;DHT22;25061;51.954;6.996;2023-04-25T14:43:08;11.50;99.90
39345;DHT22;25061;51.954;6.996;2023-04-25T14:45:34;11.60;99.90
39345;DHT22;25061;51.954;6.996;2023-04-25T14:48:00;11.90;99.90
39345;DHT22;25061;51.954;6.996;2023-04-25T14:50:25;12.10;99.90
39345;DHT22;25061;51.954;6.996;2023-04-25T14:52:51;12.30;99.90
39345;DHT22;25061;51.954;6.996;2023-04-25T14:55:19;12.30;99.90
39345;DHT22;25061;51.954;6.996;2023-04-25T14:57:45;12.20;99.90
39345;DHT22;25061;51.954;6.996;2023-04-25T15:00:12;12.00;99.90
39345;DHT22;25061;51.954;6.996;2023-04-25T15:02:41;11.70;99.90
39345;DHT22;25061;51.954;6.996;2023-04-25T15:05:07;11.40;99.90
39345;DHT22;25061;51.954;6.996;2023-04-25T15:07:35;11.40;99.90
39345;DHT22;25061;51.954;6.996;2023-04-25T15:10:01;11.40;99.90
39345;DHT22;25061;51.954;6.996;2023-04-25T15:12:28;11.50;99.90
39345;DHT22;25061;51.954;6.996;2023-04-25T15:14:54;11.30;99.90
39345;DHT22;25061;51.954;6.996;2023-04-25T15:17:19;11.10;99.90
39345;DHT22;25061;51.954;6.996;2023-04-25T15:19:45;11.30;99.90
39345;DHT22;25061;51.954;6.996;2023-04-25T15:22:11;11.50;99.90
39345;DHT22;25061;51.954;6.996;2023-04-25T15:24:36;11.70;99.90
39345;DHT22;25061;51.954;6.996;2023-04-25T15:27:02;11.60;99.90
39345;DHT22;25061;51.954;6.996;2023-04-25T15:29:30;11.40;99.90
39345;DHT22;25061;51.954;6.996;2023-04-25T15:31:56;11.40;99.90
39345;DHT22;25061;51.954;6.996;2023-04-25T15:34:22;11.30;99.90
39345;DHT22;25061;51.954;6.996;2023-04-25T15:36:48;11.00;99.90
39345;DHT22;25061;51.954;6.996;2023-04-25T15:39:15;10.90;99.90
39345;DHT22;25061;51.954;6.996;2023-04-25T15:41:41;10.80;99.80
39345;DHT22;25061;51.954;6.996;2023-04-25T15:44:06;10.90;99.90
39345;DHT22;25061;51.954;6.996;2023-04-25T15:46:33;10.90;99.70
39345;DHT22;25061;51.954;6.996;2023-04-25T15:48:58;10.90;99.90
39345;DHT22;25061;51.954;6.996;2023-04-25T15:51:24;10.80;98.90
39345;DHT22;25061;51.954;6.996;2023-04-25T15:53:49;10.60;98.60
39345;DHT22;25061;51.954;6.996;2023-04-25T15:56:15;10.40;99.00
39345;DHT22;25061;51.954;6.996;2023-04-25T15:58:41;10.60;99.10
39345;DHT22;25061;51.954;6.996;2023-04-25T16:01:06;10.60;99.60
39345;DHT22;25061;51.954;6.996;2023-04-25T16:03:33;10.60;98.80
39345;DHT22;25061;51.954;6.996;2023-04-25T16:05:58;10.80;99.90
39345;DHT22;25061;51.954;6.996;2023-04-25T16:08:24;10.90;99.90
39345;DHT22;25061;51.954;6.996;2023-04-25T16:10:50;10.80;99.90
39345;DHT22;25061;51.954;6.996;2023-04-25T16:13:19;10.20;99.90
39345;DHT22;25061;51.954;6.996;2023-04-25T16:15:44;10.10;99.90
39345;DHT22;25061;51.954;6.996;2023-04-25T16:18:10;9.90;99.90
39345;DHT22;25061;51.954;6.996;2023-04-25T16:20:37;9.70;99.90
39345;DHT22;25061;51.954;6.996;2023-04-25T16:23:03;9.70;99.90
39345;DHT22;25061;51.954;6.996;2023-04-25T16:25:29;9.60;99.90
39345;DHT22;25061;51.954;6.996;2023-04-25T16:27:56;9.50;99.90
39345;DHT22;25061;51.954;6.996;2023-04-25T16:30:21;9.60;99.90
39345;DHT22;25061;51.954;6.996;2023-04-25T16:32:47;9.80;99.90
39345;DHT22;25061;51.954;6.996;2023-04-25T16:35:14;9.90;99.90
39345;DHT22;25061;51.954;6.996;2023-04-25T16:37:40;9.90;99.90
39345;DHT22;25061;51.954;6.996;2023-04-25T16:40:06;9.60;99.90
39345;DHT22;25061;51.954;6.996;2023-04-25T16:42:35;9.60;99.90
39345;DHT22;25061;51.954;6.996;2023-04-25T16:45:02;9.50;99.90
39345;DHT22;25061;51.954;6.996;2023-04-25T16:47:29;9.30;99.90
39345;DHT22;25061;51.954;6.996;2023-04-25T16:49:58;9.20;99.90
39345;DHT22;25061;51.954;6.996;2023-04-25T16:52:24;9.20;99.90
39345;DHT22;25061;51.954;6.996;2023-04-25T16:54:49;9.10;99.90
39345;DHT22;25061;51.954;6.996;2023-04-25T16:57:15;9.10;99.90
39345;DHT22;25061;51.954;6.996;2023-04-25T16:59:41;9.10;99.90
39345;DHT22;25061;51.954;6.996;2023-04-25T17:02:10;9.00;99.90
39345;DHT22;25061;51.954;6.996;2023-04-25T17:04:37;8.90;99.90
39345;DHT22;25061;51.954;6.996;2023-04-25T17:07:02;8.80;99.90
39345;DHT22;25061;51.954;6.996;2023-04-25T17:09:28;8.80;99.90
39345;DHT22;25061;51.954;6.996;2023-04-25T17:11:53;8.70;99.90
39345;DHT22;25061;51.954;6.996;2023-04-25T17:14:19;8.80;99.90
39345;DHT22;25061;51.954;6.996;2023-04-25T17:16:45;8.80;99.90
39345;DHT22;25061;51.954;6.996;2023-04-25T17:19:11;8.90;99.90
39345;DHT22;25061;51.954;6.996;2023-04-25T17:21:36;9.00;99.90
39345;DHT22;25061;51.954;6.996;2023-04-25T17:24:04;9.20;99.90
39345;DHT22;25061;51.954;6.996;2023-04-25T17:26:34;9.20;99.90
39345;DHT22;25061;51.954;6.996;2023-04-25T17:29:02;9.10;99.90
39345;DHT22;25061;51.954;6.996;2023-04-25T17:31:29;8.90;99.90
39345;DHT22;25061;51.954;6.996;2023-04-25T17:33:54;8.90;99.90
39345;DHT22;25061;51.954;6.996;2023-04-25T17:36:20;8.90;99.90
39345;DHT22;25061;51.954;6.996;2023-04-25T17:38:46;8.90;99.90
39345;DHT22;25061;51.954;6.996;2023-04-25T17:41:11;8.80;99.90
39345;DHT22;25061;51.954;6.996;2023-04-25T17:43:39;8.70;99.90
39345;DHT22;25061;51.954;6.996;2023-04-25T17:46:05;8.70;99.90
39345;DHT22;25061;51.954;6.996;2023-04-25T17:48:31;8.60;99.90
39345;DHT22;25061;51.954;6.996;2023-04-25T17:50:57;8.60;99.90
39345;DHT22;25061;51.954;6.996;2023-04-25T17:53:23;8.40;99.90
39345;DHT22;25061;51.954;6.996;2023-04-25T17:55:49;8.40;99.90
39345;DHT22;25061;51.954;6.996;2023-04-25T17:58:15;8.40;99.90
39345;DHT22;25061;51.954;6.996;2023-04-25T18:00:41;8.40;99.90
39345;DHT22;25061;51.954;6.996;2023-04-25T18:03:07;8.20;99.90
39345;DHT22;25061;51.954;6.996;2023-04-25T18:05:33;8.20;99.90
39345;DHT22;25061;51.954;6.996;2023-04-25T18:07:59;8.10;99.90
39345;DHT22;25061;51.954;6.996;2023-04-25T18:10:25;8.00;99.90
39345;DHT22;25061;51.954;6.996;2023-04-25T18:12:51;7.90;99.90
39345;DHT22;25061;51.954;6.996;2023-04-25T18:15:19;7.80;99.90
39345;DHT22;25061;51.954;6.996;2023-04-25T18:17:46;7.80;99.90
39345;DHT22;25061;51.954;6.996;2023-04-25T18:20:14;7.70;99.90
39345;DHT22;25061;51.954;6.996;2023-04-25T18:22:43;7.60;99.90
39345;DHT22;25061;51.954;6.996;2023-04-25T18:25:10;7.70;99.90
39345;DHT22;25061;51.954;6.996;2023-04-25T18:27:38;7.60;99.90
39345;DHT22;25061;51.954;6.996;2023-04-25T18:30:06;7.60;99.90
39345;DHT22;25061;51.954;6.996;2023-04-25T18:32:33;7.50;99.90
39345;DHT22;25061;51.954;6.996;2023-04-25T18:34:59;7.40;99.90
39345;DHT22;25061;51.954;6.996;2023-04-25T18:37:25;7.30;99.90
39345;DHT22;25061;51.954;6.996;2023-04-25T18:39:50;7.30;99.90
39345;DHT22;25061;51.954;6.996;2023-04-25T18:42:19;7.20;99.90
39345;DHT22;25061;51.954;6.996;2023-04-25T18:44:45;7.20;99.90
39345;DHT22;25061;51.954;6.996;2023-04-25T18:47:10;7.20;99.90
39345;DHT22;25061;51.954;6.996;2023-04-25T18:49:40;7.10;99.90
39345;DHT22;25061;51.954;6.996;2023-04-25T18:52:06;7.10;99.90
39345;DHT22;25061;51.954;6.996;2023-04-25T18:54:37;7.10;99.90
39345;DHT22;25061;51.954;6.996;2023-04-25T18:57:04;7.00;99.90
39345;DHT22;25061;51.954;6.996;2023-04-25T18:59:31;7.00;99.90
39345;DHT22;25061;51.954;6.996;2023-04-25T19:01:57;6.90;99.90
39345;DHT22;25061;51.954;6.996;2023-04-25T19:04:24;6.90;99.90
39345;DHT22;25061;51.954;6.996;2023-04-25T19:06:50;6.80;99.90
39345;DHT22;25061;51.954;6.996;2023-04-25T19:09:17;6.80;99.90
39345;DHT22;25061;51.954;6.996;2023-04-25T19:11:43;6.80;99.90
39345;DHT22;25061;51.954;6.996;2023-04-25T19:14:10;6.80;99.90
39345;DHT22;25061;51.954;6.996;2023-04-25T19:16:35;6.70;99.90
39345;DHT22;25061;51.954;6.996;2023-04-25T19:19:05;6.70;99.90
39345;DHT22;25061;51.954;6.996;2023-04-25T19:21:32;6.70;99.90
39345;DHT22;25061;51.954;6.996;2023-04-25T19:24:01;6.70;99.90
39345;DHT22;25061;51.954;6.996;2023-04-25T19:26:28;6.60;99.90
39345;DHT22;25061;51.954;6.996;2023-04-25T19:29:08;6.50;99.90
39345;DHT22;25061;51.954;6.996;2023-04-25T19:31:35;6.60;99.90
39345;DHT22;25061;51.954;6.996;2023-04-25T19:34:02;6.50;99.90
39345;DHT22;25061;51.954;6.996;2023-04-25T19:36:29;6.50;99.90
39345;DHT22;25061;51.954;6.996;2023-04-25T19:38:54;6.40;99.90
39345;DHT22;25061;51.954;6.996;2023-04-25T19:41:27;6.40;99.90
39345;DHT22;25061;51.954;6.996;2023-04-25T19:43:52;6.30;99.90
39345;DHT22;25061;51.954;6.996;2023-04-25T19:46:18;6.30;99.90
39345;DHT22;25061;51.954;6.996;2023-04-25T19:48:43;6.30;99.90
39345;DHT22;25061;51.954;6.996;2023-04-25T19:51:09;6.20;99.90
39345;DHT22;25061;51.954;6.996;2023-04-25T19:53:36;6.20;99.90
39345;DHT22;25061;51.954;6.996;2023-04-25T19:56:02;6.20;99.90
39345;DHT22;25061;51.954;6.996;2023-04-25T19:58:28;6.20;99.90
39345;DHT22;25061;51.954;6.996;2023-04-25T20:00:54;6.10;99.90
39345;DHT22;25061;51.954;6.996;2023-04-25T20:03:22;6.00;99.90
39345;DHT22;25061;51.954;6.996;2023-04-25T20:05:48;6.00;99.90
39345;DHT22;25061;51.954;6.996;2023-04-25T20:08:14;6.00;99.90
39345;DHT22;25061;51.954;6.996;2023-04-25T20:10:41;6.00;99.90
39345;DHT22;25061;51.954;6.996;2023-04-25T20:13:06;6.00;99.90
39345;DHT22;25061;51.954;6.996;2023-04-25T20:15:33;5.90;99.90
39345;DHT22;25061;51.954;6.996;2023-04-25T20:17:58;5.90;99.90
39345;DHT22;25061;51.954;6.996;2023-04-25T20:20:24;5.90;99.90
39345;DHT22;25061;51.954;6.996;2023-04-25T20:22:49;5.90;99.90